sensor_id;sensor_type;location;lat;lon;timestamp;temperature;humidity
15676;DHT22;7938;47.666;9.434;2023-04-23T04:02:27;10.10;99.90
15676;DHT22;7938;47.666;9.434;2023-04-23T04:04:54;10.20;99.90
15676;DHT22;7938;47.666;9.434;2023-04-23T04:07:21;10.10;99.90
15676;DHT22;7938;47.666;9.434;2023-04-23T04:09:47;10.10;99.90
15676;DHT22;7938;47.666;9.434;2023-04-23T04:12:15;10.10;99.90
15676;DHT22;7938;47.666;9.434;2023-04-23T04:14:43;10.10;99.90
15676;DHT22;7938;47.666;9.434;2023-04-23T04:17:10;10.10;99.90
15676;DHT22;7938;47.666;9.434;2023-04-23T04:19:41;10.00;99.90
15676;DHT22;7938;47.666;9.434;2023-04-23T04:22:08;10.10;99.90
15676;DHT22;7938;47.666;9.434;2023-04-23T04:24:35;10.20;99.90
15676;DHT22;7938;47.666;9.434;2023-04-23T04:27:02;10.10;99.90
15676;DHT22;7938;47.666;9.434;2023-04-23T04:29:30;10.00;99.90
15676;DHT22;7938;47.666;9.434;2023-04-23T04:31:58;10.00;99.90
15676;DHT22;7938;47.666;9.434;2023-04-23T04:34:25;10.00;99.90
15676;DHT22;7938;47.666;9.434;2023-04-23T04:36:54;10.00;99.90
15676;DHT22;7938;47.666;9.434;2023-04-23T04:39:20;10.00;99.90
15676;DHT22;7938;47.666;9.434;2023-04-23T04:41:47;10.10;99.90
15676;DHT22;7938;47.666;9.434;2023-04-23T04:44:14;10.00;99.90
15676;DHT22;7938;47.666;9.434;2023-04-23T04:46:41;10.00;99.90
15676;DHT22;7938;47.666;9.434;2023-04-23T04:49:09;10.00;99.90
15676;DHT22;7938;47.666;9.434;2023-04-23T04:51:37;10.00;99.90
15676;DHT22;7938;47.666;9.434;2023-04-23T04:54:05;10.10;99.90
15676;DHT22;7938;47.666;9.434;2023-04-23T04:56:32;10.10;99.90
15676;DHT22;7938;47.666;9.434;2023-04-23T04:59:00;10.20;99.90
15676;DHT22;7938;47.666;9.434;2023-04-23T05:01:27;10.20;99.90
15676;DHT22;7938;47.666;9.434;2023-04-23T05:03:54;10.20;99.90
15676;DHT22;7938;47.666;9.434;2023-04-23T05:06:21;10.10;99.90
15676;DHT22;7938;47.666;9.434;2023-04-23T05:08:48;10.10;99.90
15676;DHT22;7938;47.666;9.434;2023-04-23T05:11:17;10.10;99.90
15676;DHT22;7938;47.666;9.434;2023-04-23T05:13:44;10.10;99.90
15676;DHT22;7938;47.666;9.434;2023-04-23T05:16:12;10.00;99.90
15676;DHT22;7938;47.666;9.434;2023-04-23T05:18:39;9.90;99.90
15676;DHT22;7938;47.666;9.434;2023-04-23T05:21:06;9.70;99.90
15676;DHT22;7938;47.666;9.434;2023-04-23T05:23:34;9.70;99.90
15676;DHT22;7938;47.666;9.434;2023-04-23T05:26:01;9.60;99.90
15676;DHT22;7938;47.666;9.434;2023-04-23T05:28:30;9.60;99.90
15676;DHT22;7938;47.666;9.434;2023-04-23T05:33:25;9.90;99.90
15676;DHT22;7938;47.666;9.434;2023-04-23T05:35:52;10.00;99.90
15676;DHT22;7938;47.666;9.434;2023-04-23T05:38:20;10.10;99.90
15676;DHT22;7938;47.666;9.434;2023-04-23T05:40:46;10.20;99.90
15676;DHT22;7938;47.666;9.434;2023-04-23T05:43:13;10.30;99.90
15676;DHT22;7938;47.666;9.434;2023-04-23T05:45:42;10.40;99.90
15676;DHT22;7938;47.666;9.434;2023-04-23T05:48:09;10.50;99.90
15676;DHT22;7938;47.666;9.434;2023-04-23T05:50:36;10.70;99.90
15676;DHT22;7938;47.666;9.434;2023-04-23T05:53:03;10.70;99.90
15676;DHT22;7938;47.666;9.434;2023-04-23T05:55:29;10.80;99.90
15676;DHT22;7938;47.666;9.434;2023-04-23T05:57:56;10.90;99.90
15676;DHT22;7938;47.666;9.434;2023-04-23T06:00:23;10.90;99.90
15676;DHT22;7938;47.666;9.434;2023-04-23T06:02:51;10.90;99.90
15676;DHT22;7938;47.666;9.434;2023-04-23T06:05:18;10.80;99.90
15676;DHT22;7938;47.666;9.434;2023-04-23T06:07:45;10.80;99.90
15676;DHT22;7938;47.666;9.434;2023-04-23T06:10:12;10.90;99.90
15676;DHT22;7938;47.666;9.434;2023-04-23T06:12:39;11.00;99.90
15676;DHT22;7938;47.666;9.434;2023-04-23T06:15:07;11.00;99.90
15676;DHT22;7938;47.666;9.434;2023-04-23T06:17:35;11.00;99.90
15676;DHT22;7938;47.666;9.434;2023-04-23T06:20:04;11.20;99.90
15676;DHT22;7938;47.666;9.434;2023-04-23T06:22:31;11.20;99.90
15676;DHT22;7938;47.666;9.434;2023-04-23T06:24:58;11.30;99.90
15676;DHT22;7938;47.666;9.434;2023-04-23T06:27:25;11.40;99.90
15676;DHT22;7938;47.666;9.434;2023-04-23T06:29:52;11.40;99.90
15676;DHT22;7938;47.666;9.434;2023-04-23T06:32:19;11.40;99.90
15676;DHT22;7938;47.666;9.434;2023-04-23T06:34:46;11.40;99.90
15676;DHT22;7938;47.666;9.434;2023-04-23T06:37:15;11.40;99.90
15676;DHT22;7938;47.666;9.434;2023-04-23T06:39:42;11.50;99.90
15676;DHT22;7938;47.666;9.434;2023-04-23T06:42:08;11.50;99.90
15676;DHT22;7938;47.666;9.434;2023-04-23T06:44:35;11.60;99.90
15676;DHT22;7938;47.666;9.434;2023-04-23T06:47:02;11.60;99.90
15676;DHT22;7938;47.666;9.434;2023-04-23T06:49:29;11.60;99.90
15676;DHT22;7938;47.666;9.434;2023-04-23T06:51:56;11.60;99.90
15676;DHT22;7938;47.666;9.434;2023-04-23T06:54:24;11.70;99.90
15676;DHT22;7938;47.666;9.434;2023-04-23T06:56:52;11.80;99.90
15676;DHT22;7938;47.666;9.434;2023-04-23T06:59:18;11.90;99.90
15676;DHT22;7938;47.666;9.434;2023-04-23T07:01:45;12.00;99.90
15676;DHT22;7938;47.666;9.434;2023-04-23T07:04:12;12.10;99.90
15676;DHT22;7938;47.666;9.434;2023-04-23T07:06:39;12.30;99.90
15676;DHT22;7938;47.666;9.434;2023-04-23T07:09:06;12.30;99.90
15676;DHT22;7938;47.666;9.434;2023-04-23T07:11:35;12.40;99.90
15676;DHT22;7938;47.666;9.434;2023-04-23T07:14:02;12.50;99.90
15676;DHT22;7938;47.666;9.434;2023-04-23T07:16:29;12.60;99.90
15676;DHT22;7938;47.666;9.434;2023-04-23T07:18:58;12.60;99.90
15676;DHT22;7938;47.666;9.434;2023-04-23T07:21:26;12.60;99.90
15676;DHT22;7938;47.666;9.434;2023-04-23T07:23:55;12.70;99.90
15676;DHT22;7938;47.666;9.434;2023-04-23T07:26:22;12.80;99.90
15676;DHT22;7938;47.666;9.434;2023-04-23T07:28:51;12.80;99.90
15676;DHT22;7938;47.666;9.434;2023-04-23T07:31:18;13.00;99.90
15676;DHT22;7938;47.666;9.434;2023-04-23T07:33:45;13.10;99.90
15676;DHT22;7938;47.666;9.434;2023-04-23T07:36:12;13.30;99.90
15676;DHT22;7938;47.666;9.434;2023-04-23T07:38:39;13.20;99.90
15676;DHT22;7938;47.666;9.434;2023-04-23T07:41:06;13.30;99.90
15676;DHT22;7938;47.666;9.434;2023-04-23T07:43:33;13.30;99.90
15676;DHT22;7938;47.666;9.434;2023-04-23T07:46:01;13.30;99.90
15676;DHT22;7938;47.666;9.434;2023-04-23T07:48:29;13.40;99.90
15676;DHT22;7938;47.666;9.434;2023-04-23T07:50:56;13.50;99.90
15676;DHT22;7938;47.666;9.434;2023-04-23T07:53:23;13.70;99.90
15676;DHT22;7938;47.666;9.434;2023-04-23T07:55:50;13.80;99.90
15676;DHT22;7938;47.666;9.434;2023-04-23T07:58:17;14.10;99.90
15676;DHT22;7938;47.666;9.434;2023-04-23T08:00:44;14.20;99.90
15676;DHT22;7938;47.666;9.434;2023-04-23T08:03:12;14.20;99.90
15676;DHT22;7938;47.666;9.434;2023-04-23T08:05:40;14.30;99.90
15676;DHT22;7938;47.666;9.434;2023-04-23T08:08:07;14.40;99.90
15676;DHT22;7938;47.666;9.434;2023-04-23T08:10:34;14.60;99.90
15676;DHT22;7938;47.666;9.434;2023-04-23T08:13:01;14.60;99.90
15676;DHT22;7938;47.666;9.434;2023-04-23T08:15:28;14.60;99.90
15676;DHT22;7938;47.666;9.434;2023-04-23T08:17:55;14.50;99.90
15676;DHT22;7938;47.666;9.434;2023-04-23T08:20:24;14.50;99.90
15676;DHT22;7938;47.666;9.434;2023-04-23T08:22:51;14.60;99.90
15676;DHT22;7938;47.666;9.434;2023-04-23T08:25:18;14.70;99.90
15676;DHT22;7938;47.666;9.434;2023-04-23T08:27:46;14.50;99.90
15676;DHT22;7938;47.666;9.434;2023-04-23T08:30:13;14.50;99.90
15676;DHT22;7938;47.666;9.434;2023-04-23T08:32:40;14.60;99.90
15676;DHT22;7938;47.666;9.434;2023-04-23T08:35:07;14.30;99.90
15676;DHT22;7938;47.666;9.434;2023-04-23T08:37:36;14.50;99.90
15676;DHT22;7938;47.666;9.434;2023-04-23T08:40:06;14.50;99.90
15676;DHT22;7938;47.666;9.434;2023-04-23T08:42:37;14.70;99.90
15676;DHT22;7938;47.666;9.434;2023-04-23T08:45:08;14.40;99.90
15676;DHT22;7938;47.666;9.434;2023-04-23T08:47:36;14.30;99.90
15676;DHT22;7938;47.666;9.434;2023-04-23T08:50:09;14.40;99.90
15676;DHT22;7938;47.666;9.434;2023-04-23T08:52:39;14.30;99.90
15676;DHT22;7938;47.666;9.434;2023-04-23T08:55:08;14.50;99.90
15676;DHT22;7938;47.666;9.434;2023-04-23T08:57:37;14.30;99.90
15676;DHT22;7938;47.666;9.434;2023-04-23T09:00:05;14.20;99.90
15676;DHT22;7938;47.666;9.434;2023-04-23T09:02:35;14.30;99.90
15676;DHT22;7938;47.666;9.434;2023-04-23T09:05:02;14.30;99.90
15676;DHT22;7938;47.666;9.434;2023-04-23T09:07:30;14.40;99.90
15676;DHT22;7938;47.666;9.434;2023-04-23T09:09:58;14.50;99.90
15676;DHT22;7938;47.666;9.434;2023-04-23T09:12:25;14.80;99.90
15676;DHT22;7938;47.666;9.434;2023-04-23T09:14:52;14.80;99.90
15676;DHT22;7938;47.666;9.434;2023-04-23T09:17:20;14.80;99.90
15676;DHT22;7938;47.666;9.434;2023-04-23T09:19:49;15.10;99.90
15676;DHT22;7938;47.666;9.434;2023-04-23T09:22:37;15.40;99.90
15676;DHT22;7938;47.666;9.434;2023-04-23T09:25:06;15.60;99.90
15676;DHT22;7938;47.666;9.434;2023-04-23T09:27:33;15.50;99.90
15676;DHT22;7938;47.666;9.434;2023-04-23T09:30:01;15.70;99.90
15676;DHT22;7938;47.666;9.434;2023-04-23T09:32:32;15.90;99.90
15676;DHT22;7938;47.666;9.434;2023-04-23T09:35:01;15.90;99.90
15676;DHT22;7938;47.666;9.434;2023-04-23T09:37:28;16.00;99.90
15676;DHT22;7938;47.666;9.434;2023-04-23T09:39:57;16.20;99.90
15676;DHT22;7938;47.666;9.434;2023-04-23T09:42:27;16.30;99.90
15676;DHT22;7938;47.666;9.434;2023-04-23T09:44:59;16.60;99.90
15676;DHT22;7938;47.666;9.434;2023-04-23T09:47:26;16.80;99.90
15676;DHT22;7938;47.666;9.434;2023-04-23T09:49:56;16.50;99.90
15676;DHT22;7938;47.666;9.434;2023-04-23T09:52:23;16.40;99.90
15676;DHT22;7938;47.666;9.434;2023-04-23T09:54:50;16.40;99.90
15676;DHT22;7938;47.666;9.434;2023-04-23T09:57:17;16.50;99.90
15676;DHT22;7938;47.666;9.434;2023-04-23T09:59:45;16.90;99.90
15676;DHT22;7938;47.666;9.434;2023-04-23T10:02:12;17.10;99.90
15676;DHT22;7938;47.666;9.434;2023-04-23T10:04:39;17.00;99.90
15676;DHT22;7938;47.666;9.434;2023-04-23T10:07:06;16.90;99.90
15676;DHT22;7938;47.666;9.434;2023-04-23T10:09:39;16.90;99.90
15676;DHT22;7938;47.666;9.434;2023-04-23T10:12:07;16.90;99.90
15676;DHT22;7938;47.666;9.434;2023-04-23T10:14:35;16.90;99.90
15676;DHT22;7938;47.666;9.434;2023-04-23T10:17:06;17.00;99.90
15676;DHT22;7938;47.666;9.434;2023-04-23T10:19:35;17.40;99.90
15676;DHT22;7938;47.666;9.434;2023-04-23T10:22:08;17.00;99.90
15676;DHT22;7938;47.666;9.434;2023-04-23T10:24:39;16.80;99.90
15676;DHT22;7938;47.666;9.434;2023-04-23T10:27:10;16.70;99.90
15676;DHT22;7938;47.666;9.434;2023-04-23T10:29:37;17.10;99.90
15676;DHT22;7938;47.666;9.434;2023-04-23T10:32:06;17.40;99.90
15676;DHT22;7938;47.666;9.434;2023-04-23T10:34:34;17.40;99.90
15676;DHT22;7938;47.666;9.434;2023-04-23T10:37:01;17.50;99.90
15676;DHT22;7938;47.666;9.434;2023-04-23T10:39:31;17.40;99.90
15676;DHT22;7938;47.666;9.434;2023-04-23T10:42:00;17.20;99.90
15676;DHT22;7938;47.666;9.434;2023-04-23T10:44:35;17.30;99.90
15676;DHT22;7938;47.666;9.434;2023-04-23T10:47:02;17.30;99.90
15676;DHT22;7938;47.666;9.434;2023-04-23T10:49:32;17.20;99.30
15676;DHT22;7938;47.666;9.434;2023-04-23T10:52:00;17.20;99.90
15676;DHT22;7938;47.666;9.434;2023-04-23T10:54:29;17.40;99.80
15676;DHT22;7938;47.666;9.434;2023-04-23T10:56:58;17.50;99.90
15676;DHT22;7938;47.666;9.434;2023-04-23T10:59:26;17.40;99.40
15676;DHT22;7938;47.666;9.434;2023-04-23T11:01:55;17.60;99.90
15676;DHT22;7938;47.666;9.434;2023-04-23T11:04:25;17.60;99.90
15676;DHT22;7938;47.666;9.434;2023-04-23T11:06:56;17.70;99.90
15676;DHT22;7938;47.666;9.434;2023-04-23T11:09:38;17.80;99.90
15676;DHT22;7938;47.666;9.434;2023-04-23T11:12:06;18.00;99.90
15676;DHT22;7938;47.666;9.434;2023-04-23T11:14:36;18.00;99.90
15676;DHT22;7938;47.666;9.434;2023-04-23T11:17:04;17.90;99.90
15676;DHT22;7938;47.666;9.434;2023-04-23T11:19:34;17.90;99.20
15676;DHT22;7938;47.666;9.434;2023-04-23T11:22:04;17.90;99.90
15676;DHT22;7938;47.666;9.434;2023-04-23T11:24:34;17.80;99.90
15676;DHT22;7938;47.666;9.434;2023-04-23T11:27:05;17.90;99.90
15676;DHT22;7938;47.666;9.434;2023-04-23T11:29:32;17.90;99.90
15676;DHT22;7938;47.666;9.434;2023-04-23T11:31:59;18.10;99.90
15676;DHT22;7938;47.666;9.434;2023-04-23T11:34:27;18.10;99.90
15676;DHT22;7938;47.666;9.434;2023-04-23T11:36:55;18.10;99.90
15676;DHT22;7938;47.666;9.434;2023-04-23T11:39:25;17.90;99.60
15676;DHT22;7938;47.666;9.434;2023-04-23T11:41:53;17.70;99.90
15676;DHT22;7938;47.666;9.434;2023-04-23T11:44:20;17.80;99.80
15676;DHT22;7938;47.666;9.434;2023-04-23T11:46:47;17.80;99.90
15676;DHT22;7938;47.666;9.434;2023-04-23T11:49:15;18.00;99.90
15676;DHT22;7938;47.666;9.434;2023-04-23T11:51:43;18.30;99.90
15676;DHT22;7938;47.666;9.434;2023-04-23T11:54:10;18.40;99.50
15676;DHT22;7938;47.666;9.434;2023-04-23T11:56:40;18.40;99.30
15676;DHT22;7938;47.666;9.434;2023-04-23T11:59:07;18.60;98.50
15676;DHT22;7938;47.666;9.434;2023-04-23T12:01:41;18.60;99.50
15676;DHT22;7938;47.666;9.434;2023-04-23T12:04:10;18.30;99.60
15676;DHT22;7938;47.666;9.434;2023-04-23T12:06:38;18.30;99.40
15676;DHT22;7938;47.666;9.434;2023-04-23T12:09:05;18.30;98.80
15676;DHT22;7938;47.666;9.434;2023-04-23T12:11:34;18.00;99.90
15676;DHT22;7938;47.666;9.434;2023-04-23T12:14:02;18.10;99.90
15676;DHT22;7938;47.666;9.434;2023-04-23T12:16:36;18.00;99.90
15676;DHT22;7938;47.666;9.434;2023-04-23T12:19:06;17.90;99.90
15676;DHT22;7938;47.666;9.434;2023-04-23T12:21:33;17.80;99.60
15676;DHT22;7938;47.666;9.434;2023-04-23T12:24:02;17.80;99.90
15676;DHT22;7938;47.666;9.434;2023-04-23T12:26:30;17.50;99.90
15676;DHT22;7938;47.666;9.434;2023-04-23T12:28:58;17.60;99.90
15676;DHT22;7938;47.666;9.434;2023-04-23T12:31:28;17.50;99.80
15676;DHT22;7938;47.666;9.434;2023-04-23T12:34:01;17.50;99.90
15676;DHT22;7938;47.666;9.434;2023-04-23T12:36:29;17.40;99.90
15676;DHT22;7938;47.666;9.434;2023-04-23T12:39:17;17.30;99.90
15676;DHT22;7938;47.666;9.434;2023-04-23T12:41:45;17.40;99.90
15676;DHT22;7938;47.666;9.434;2023-04-23T12:44:11;17.50;99.90
15676;DHT22;7938;47.666;9.434;2023-04-23T12:46:40;17.60;99.90
15676;DHT22;7938;47.666;9.434;2023-04-23T12:49:07;17.50;99.90
15676;DHT22;7938;47.666;9.434;2023-04-23T12:51:33;17.40;99.90
15676;DHT22;7938;47.666;9.434;2023-04-23T12:54:00;17.30;99.90
15676;DHT22;7938;47.666;9.434;2023-04-23T12:56:28;17.30;99.90
15676;DHT22;7938;47.666;9.434;2023-04-23T12:58:55;17.40;99.90
15676;DHT22;7938;47.666;9.434;2023-04-23T13:01:22;17.20;99.90
15676;DHT22;7938;47.666;9.434;2023-04-23T13:03:50;17.10;99.90
15676;DHT22;7938;47.666;9.434;2023-04-23T13:06:17;17.00;99.90
15676;DHT22;7938;47.666;9.434;2023-04-23T13:08:44;16.80;99.90
15676;DHT22;7938;47.666;9.434;2023-04-23T13:11:10;16.40;99.90
15676;DHT22;7938;47.666;9.434;2023-04-23T13:13:37;16.20;99.90
15676;DHT22;7938;47.666;9.434;2023-04-23T13:16:05;16.30;99.90
15676;DHT22;7938;47.666;9.434;2023-04-23T13:18:32;16.50;99.90
15676;DHT22;7938;47.666;9.434;2023-04-23T13:21:00;16.60;99.90
15676;DHT22;7938;47.666;9.434;2023-04-23T13:23:27;17.10;99.90
15676;DHT22;7938;47.666;9.434;2023-04-23T13:25:54;17.30;99.90
15676;DHT22;7938;47.666;9.434;2023-04-23T13:28:21;17.60;99.90
15676;DHT22;7938;47.666;9.434;2023-04-23T13:30:48;17.80;99.90
15676;DHT22;7938;47.666;9.434;2023-04-23T13:33:15;18.00;99.90
15676;DHT22;7938;47.666;9.434;2023-04-23T13:35:42;18.30;99.90
15676;DHT22;7938;47.666;9.434;2023-04-23T13:38:10;18.60;99.90
15676;DHT22;7938;47.666;9.434;2023-04-23T13:40:37;18.70;98.90
15676;DHT22;7938;47.666;9.434;2023-04-23T13:43:04;18.90;98.20
15676;DHT22;7938;47.666;9.434;2023-04-23T13:45:31;18.80;98.80
15676;DHT22;7938;47.666;9.434;2023-04-23T13:47:58;18.90;98.50
15676;DHT22;7938;47.666;9.434;2023-04-23T13:50:26;19.40;97.70
15676;DHT22;7938;47.666;9.434;2023-04-23T13:52:53;19.30;97.80
15676;DHT22;7938;47.666;9.434;2023-04-23T13:55:22;19.50;98.10
15676;DHT22;7938;47.666;9.434;2023-04-23T13:57:49;19.60;96.90
15676;DHT22;7938;47.666;9.434;2023-04-23T14:00:16;19.50;97.70
15676;DHT22;7938;47.666;9.434;2023-04-23T14:02:43;19.80;96.40
15676;DHT22;7938;47.666;9.434;2023-04-23T14:05:10;20.00;96.20
15676;DHT22;7938;47.666;9.434;2023-04-23T14:07:37;20.00;96.10
15676;DHT22;7938;47.666;9.434;2023-04-23T14:10:05;20.00;96.30
15676;DHT22;7938;47.666;9.434;2023-04-23T14:12:34;19.60;97.30
15676;DHT22;7938;47.666;9.434;2023-04-23T14:15:00;20.00;96.90
15676;DHT22;7938;47.666;9.434;2023-04-23T14:17:28;20.40;96.90
15676;DHT22;7938;47.666;9.434;2023-04-23T14:19:55;20.70;95.40
15676;DHT22;7938;47.666;9.434;2023-04-23T14:22:22;20.70;95.70
15676;DHT22;7938;47.666;9.434;2023-04-23T14:24:50;20.60;95.40
15676;DHT22;7938;47.666;9.434;2023-04-23T14:27:21;21.00;95.80
15676;DHT22;7938;47.666;9.434;2023-04-23T14:29:56;20.90;94.40
15676;DHT22;7938;47.666;9.434;2023-04-23T14:32:23;20.80;95.70
15676;DHT22;7938;47.666;9.434;2023-04-23T14:34:50;20.60;95.50
15676;DHT22;7938;47.666;9.434;2023-04-23T14:37:17;20.50;94.60
15676;DHT22;7938;47.666;9.434;2023-04-23T14:39:44;19.40;95.90
15676;DHT22;7938;47.666;9.434;2023-04-23T14:42:12;18.70;95.90
15676;DHT22;7938;47.666;9.434;2023-04-23T14:44:39;18.40;97.30
15676;DHT22;7938;47.666;9.434;2023-04-23T14:47:07;18.30;97.10
15676;DHT22;7938;47.666;9.434;2023-04-23T14:49:36;18.10;98.10
15676;DHT22;7938;47.666;9.434;2023-04-23T14:52:04;18.10;96.60
15676;DHT22;7938;47.666;9.434;2023-04-23T14:54:31;17.70;97.80
15676;DHT22;7938;47.666;9.434;2023-04-23T14:57:00;17.40;98.40
15676;DHT22;7938;47.666;9.434;2023-04-23T14:59:27;17.40;98.60
15676;DHT22;7938;47.666;9.434;2023-04-23T15:01:54;17.20;99.00
15676;DHT22;7938;47.666;9.434;2023-04-23T15:04:23;17.10;99.80
15676;DHT22;7938;47.666;9.434;2023-04-23T15:06:49;16.90;99.90
15676;DHT22;7938;47.666;9.434;2023-04-23T15:09:16;16.60;99.90
15676;DHT22;7938;47.666;9.434;2023-04-23T15:11:43;16.20;99.90
15676;DHT22;7938;47.666;9.434;2023-04-23T15:14:19;15.60;99.90
15676;DHT22;7938;47.666;9.434;2023-04-23T15:16:50;15.10;99.90
15676;DHT22;7938;47.666;9.434;2023-04-23T15:19:17;14.90;99.90
15676;DHT22;7938;47.666;9.434;2023-04-23T15:21:46;14.50;99.90
15676;DHT22;7938;47.666;9.434;2023-04-23T15:24:13;14.40;99.90
15676;DHT22;7938;47.666;9.434;2023-04-23T15:26:42;14.30;99.90
15676;DHT22;7938;47.666;9.434;2023-04-23T15:29:10;14.30;99.90
15676;DHT22;7938;47.666;9.434;2023-04-23T15:31:37;14.20;99.90
15676;DHT22;7938;47.666;9.434;2023-04-23T15:34:05;14.20;99.90
15676;DHT22;7938;47.666;9.434;2023-04-23T15:36:34;14.10;99.90
15676;DHT22;7938;47.666;9.434;2023-04-23T15:39:03;14.10;99.90
15676;DHT22;7938;47.666;9.434;2023-04-23T15:41:30;14.10;99.90
15676;DHT22;7938;47.666;9.434;2023-04-23T15:43:57;14.10;99.90
15676;DHT22;7938;47.666;9.434;2023-04-23T15:46:24;14.00;99.90
15676;DHT22;7938;47.666;9.434;2023-04-23T15:48:51;14.10;99.90
15676;DHT22;7938;47.666;9.434;2023-04-23T15:51:18;14.10;99.90
15676;DHT22;7938;47.666;9.434;2023-04-23T15:53:45;14.10;99.90
15676;DHT22;7938;47.666;9.434;2023-04-23T15:56:14;14.20;99.90
15676;DHT22;7938;47.666;9.434;2023-04-23T15:58:41;14.20;99.90
15676;DHT22;7938;47.666;9.434;2023-04-23T16:01:08;14.10;99.90
15676;DHT22;7938;47.666;9.434;2023-04-23T16:03:35;13.90;99.90
15676;DHT22;7938;47.666;9.434;2023-04-23T16:06:03;13.50;99.90
15676;DHT22;7938;47.666;9.434;2023-04-23T16:08:30;13.20;99.90
15676;DHT22;7938;47.666;9.434;2023-04-23T16:10:57;13.00;99.90
15676;DHT22;7938;47.666;9.434;2023-04-23T16:13:26;12.90;99.90
15676;DHT22;7938;47.666;9.434;2023-04-23T16:15:53;12.90;99.90
15676;DHT22;7938;47.666;9.434;2023-04-23T16:18:20;12.80;99.90
15676;DHT22;7938;47.666;9.434;2023-04-23T16:20:47;12.90;99.90
15676;DHT22;7938;47.666;9.434;2023-04-23T16:23:14;12.80;99.90
15676;DHT22;7938;47.666;9.434;2023-04-23T16:25:42;12.90;99.90
15676;DHT22;7938;47.666;9.434;2023-04-23T16:28:09;13.00;99.90
15676;DHT22;7938;47.666;9.434;2023-04-23T16:30:39;13.00;99.90
15676;DHT22;7938;47.666;9.434;2023-04-23T16:33:06;13.00;99.90
15676;DHT22;7938;47.666;9.434;2023-04-23T16:35:33;12.90;99.90
15676;DHT22;7938;47.666;9.434;2023-04-23T16:38:01;12.90;99.90
15676;DHT22;7938;47.666;9.434;2023-04-23T16:40:28;12.70;99.90
15676;DHT22;7938;47.666;9.434;2023-04-23T16:42:55;12.70;99.90
15676;DHT22;7938;47.666;9.434;2023-04-23T16:45:21;12.50;99.90
15676;DHT22;7938;47.666;9.434;2023-04-23T16:47:50;12.40;99.90
15676;DHT22;7938;47.666;9.434;2023-04-23T16:50:17;12.30;99.90
15676;DHT22;7938;47.666;9.434;2023-04-23T16:52:44;12.20;99.90
15676;DHT22;7938;47.666;9.434;2023-04-23T16:55:11;12.10;99.90
15676;DHT22;7938;47.666;9.434;2023-04-23T16:57:38;12.10;99.90
15676;DHT22;7938;47.666;9.434;2023-04-23T17:00:06;12.00;99.90
15676;DHT22;7938;47.666;9.434;2023-04-23T17:02:34;12.00;99.90
15676;DHT22;7938;47.666;9.434;2023-04-23T17:05:04;12.00;99.90
15676;DHT22;7938;47.666;9.434;2023-04-23T17:07:31;11.90;99.90
15676;DHT22;7938;47.666;9.434;2023-04-23T17:09:58;11.80;99.90
15676;DHT22;7938;47.666;9.434;2023-04-23T17:12:25;11.80;99.90
15676;DHT22;7938;47.666;9.434;2023-04-23T17:14:52;11.90;99.90
15676;DHT22;7938;47.666;9.434;2023-04-23T17:17:19;11.80;99.90
15676;DHT22;7938;47.666;9.434;2023-04-23T17:19:47;11.80;99.90
15676;DHT22;7938;47.666;9.434;2023-04-23T17:22:16;11.80;99.90
15676;DHT22;7938;47.666;9.434;2023-04-23T17:24:44;11.80;99.90
15676;DHT22;7938;47.666;9.434;2023-04-23T17:27:11;11.80;99.90
15676;DHT22;7938;47.666;9.434;2023-04-23T17:29:38;11.90;99.90
15676;DHT22;7938;47.666;9.434;2023-04-23T17:32:05;11.90;99.90
15676;DHT22;7938;47.666;9.434;2023-04-23T17:34:32;11.90;99.90
15676;DHT22;7938;47.666;9.434;2023-04-23T17:36:59;11.90;99.90
15676;DHT22;7938;47.666;9.434;2023-04-23T17:39:28;11.80;99.90
15676;DHT22;7938;47.666;9.434;2023-04-23T17:41:55;11.60;99.90
15676;DHT22;7938;47.666;9.434;2023-04-23T17:44:22;11.60;99.90
15676;DHT22;7938;47.666;9.434;2023-04-23T17:46:49;11.60;99.90
15676;DHT22;7938;47.666;9.434;2023-04-23T17:49:17;11.60;99.90
15676;DHT22;7938;47.666;9.434;2023-04-23T17:51:44;11.50;99.90
15676;DHT22;7938;47.666;9.434;2023-04-23T17:54:12;11.60;99.90
15676;DHT22;7938;47.666;9.434;2023-04-23T17:56:40;11.50;99.90
15676;DHT22;7938;47.666;9.434;2023-04-23T17:59:07;11.50;99.90
15676;DHT22;7938;47.666;9.434;2023-04-23T18:01:34;11.50;99.90
15676;DHT22;7938;47.666;9.434;2023-04-23T18:04:01;11.60;99.90
15676;DHT22;7938;47.666;9.434;2023-04-23T18:06:28;11.60;99.90
15676;DHT22;7938;47.666;9.434;2023-04-23T18:08:55;11.60;99.90
15676;DHT22;7938;47.666;9.434;2023-04-23T18:11:22;11.70;99.90
15676;DHT22;7938;47.666;9.434;2023-04-23T18:13:50;11.70;99.90
15676;DHT22;7938;47.666;9.434;2023-04-23T18:16:19;11.70;99.90
15676;DHT22;7938;47.666;9.434;2023-04-23T18:18:46;11.70;99.90
15676;DHT22;7938;47.666;9.434;2023-04-23T18:21:13;11.60;99.90
15676;DHT22;7938;47.666;9.434;2023-04-23T18:23:42;11.70;99.90
15676;DHT22;7938;47.666;9.434;2023-04-23T18:26:09;11.80;99.90
15676;DHT22;7938;47.666;9.434;2023-04-23T18:28:36;11.90;99.90
15676;DHT22;7938;47.666;9.434;2023-04-23T18:31:05;11.90;99.90
15676;DHT22;7938;47.666;9.434;2023-04-23T18:33:39;12.00;99.90
15676;DHT22;7938;47.666;9.434;2023-04-23T18:36:18;12.10;99.90
15676;DHT22;7938;47.666;9.434;2023-04-23T18:38:46;12.10;99.90
15676;DHT22;7938;47.666;9.434;2023-04-23T18:41:14;12.10;99.90
15676;DHT22;7938;47.666;9.434;2023-04-23T18:43:41;12.10;99.90
15676;DHT22;7938;47.666;9.434;2023-04-23T18:46:09;12.10;99.90
15676;DHT22;7938;47.666;9.434;2023-04-23T18:48:50;11.90;99.90
15676;DHT22;7938;47.666;9.434;2023-04-23T18:51:24;11.90;99.90
15676;DHT22;7938;47.666;9.434;2023-04-23T18:53:52;11.90;99.90
15676;DHT22;7938;47.666;9.434;2023-04-23T18:56:19;11.80;99.90
15676;DHT22;7938;47.666;9.434;2023-04-23T18:58:46;11.80;99.90
15676;DHT22;7938;47.666;9.434;2023-04-23T19:01:14;11.70;99.90
15676;DHT22;7938;47.666;9.434;2023-04-23T19:03:41;11.80;99.90
15676;DHT22;7938;47.666;9.434;2023-04-23T19:06:08;11.70;99.90
15676;DHT22;7938;47.666;9.434;2023-04-23T19:08:35;11.70;99.90
15676;DHT22;7938;47.666;9.434;2023-04-23T19:11:02;11.60;99.90
15676;DHT22;7938;47.666;9.434;2023-04-23T19:13:30;11.60;99.90
15676;DHT22;7938;47.666;9.434;2023-04-23T19:15:58;11.60;99.90
15676;DHT22;7938;47.666;9.434;2023-04-23T19:18:27;11.60;99.90
15676;DHT22;7938;47.666;9.434;2023-04-23T19:20:55;11.60;99.90
15676;DHT22;7938;47.666;9.434;2023-04-23T19:23:22;11.50;99.90
15676;DHT22;7938;47.666;9.434;2023-04-23T19:25:49;11.40;99.90
15676;DHT22;7938;47.666;9.434;2023-04-23T19:28:17;11.30;99.90
15676;DHT22;7938;47.666;9.434;2023-04-23T19:30:44;11.20;99.90
15676;DHT22;7938;47.666;9.434;2023-04-23T19:33:11;11.20;99.90
15676;DHT22;7938;47.666;9.434;2023-04-23T19:35:39;11.10;99.90
15676;DHT22;7938;47.666;9.434;2023-04-23T19:38:07;11.00;99.90
15676;DHT22;7938;47.666;9.434;2023-04-23T19:40:34;10.90;99.90
15676;DHT22;7938;47.666;9.434;2023-04-23T19:43:01;10.90;99.90
15676;DHT22;7938;47.666;9.434;2023-04-23T19:45:29;10.80;99.90
15676;DHT22;7938;47.666;9.434;2023-04-23T19:47:57;10.80;99.90
15676;DHT22;7938;47.666;9.434;2023-04-23T19:50:25;10.70;99.90
15676;DHT22;7938;47.666;9.434;2023-04-23T19:52:53;10.70;99.90
15676;DHT22;7938;47.666;9.434;2023-04-23T19:55:20;10.70;99.90